ADDS METAR Data INFO
IDs: Format: Raw Decoded Include TAF

Data at: 2256 UTC 22 Jun 2018

KSPI 222252Z 32006G15KT 10SM BKN016 BKN022 OVC033 22/19 A2972 RMK AO2 SLP059 T02170189
KSPI 222152Z 30007KT 10SM SCT016 BKN021 BKN027 23/19 A2971 RMK AO2 LTG DSNT E SLP058 T02280194
KSPI 222122Z 32012KT 10SM SCT018 BKN025 23/19 A2971 RMK AO2 T02330194
KSPI 222052Z 31009G19KT 10SM FEW014 BKN050 23/19 A2971 RMK AO2 SLP057 T02330194 58002
KSPI 221959Z 31010KT 10SM FEW022 BKN031 OVC055 23/19 A2971 RMK AO2 LTG DSNT NE T02280194
KSPI 221952Z 29010G16KT 10SM FEW020 BKN029 OVC050 23/19 A2971 RMK AO2 LTG DSNT NE SLP058 T02280194
KSPI 221943Z 29006KT 10SM FEW021 BKN029 OVC037 23/19 A2971 RMK AO2 T02280194
KSPI 221928Z 30009KT 10SM SCT016 BKN037 OVC049 23/19 A2971 RMK AO2 T02280194
KSPI 221915Z 30006KT 10SM BKN016 BKN025 OVC032 22/19 A2971 RMK AO2 T02220194
KSPI 221852Z 30006KT 10SM BKN013 OVC025 23/19 A2972 RMK AO2 LTG DSNT NE SLP060 T02280194
KSPI 221838Z 31006KT 10SM BKN013 OVC022 23/19 A2972 RMK AO2 LTG DSNT NE T02280194
KSPI 221752Z 34009KT 10SM SCT015 BKN024 24/20 A2972 RMK AO2 LTG DSNT E AND SE SLP059 60000 T02390200 10244 20200 55000
KSPI 221739Z 10SM SCT013 BKN024 BKN050 24/21 A2972 RMK AO2 LTG DSNT E T02390206
KSPI 221730Z 30008G16KT 10SM FEW013 SCT024 BKN050 23/21 A2971 RMK AO2 LTG DSNT E T02330206
KSPI 221652Z 32007KT 10SM SCT011 OVC020 22/19 A2972 RMK AO2 LTG DSNT E AND SE SLP058 T02220194
KSPI 221552Z 36006KT 10SM BKN012 OVC019 21/19 A2972 RMK AO2 LTG DSNT S SLP059 T02110194
KSPI 221550Z 01005KT 10SM SCT010 OVC016 21/19 A2972 RMK AO2
KSPI 221452Z 33005KT 10SM OVC007 21/19 A2971 RMK AO2 SLP055 60000 T02060194 53003
KSPI 221352Z 02006KT 10SM OVC006 21/20 A2970 RMK AO2 SLP054 T02060200
KSPI 221300Z 04007KT 10SM OVC006 21/20 A2970 RMK AO2 T02110200
KSPI 221252Z 02005KT 10SM OVC004 21/20 A2970 RMK AO2 RAE08 SLP053 P0000 T02060200
KSPI 221152Z 34004KT 8SM -RA BKN004 OVC008 20/20 A2970 RMK AO2 RAE16B38 SLP052 P0000 60000 70093 T02000200 10211 20194 50002
KSPI 221147Z 35005KT 9SM -RA SCT004 BKN008 OVC033 20/20 A2970 RMK AO2 RAE16B38 P0000
KSPI 221136Z 36005KT 10SM SCT006 BKN011 BKN026 20/19 A2970 RMK AO2 RAE16 P0000 T02000194
KSPI 221058Z 02005KT 10SM -RA FEW008 SCT016 OVC110 19/19 A2969 RMK AO2 P0000 T01940189
KSPI 221052Z 04006KT 10SM -RA FEW008 BKN014 OVC110 19/19 A2969 RMK AO2 RAB30 SLP050 P0000 T01940189
KSPI 221048Z 04006KT 10SM -RA FEW009 BKN016 OVC100 19/19 A2969 RMK AO2 RAB30 P0000
KSPI 221030Z 01006KT 10SM -RA FEW008 OVC014 20/19 A2969 RMK AO2 LTG DSNT NE AND NW RAB30 P0000 T02000194
KSPI 221015Z 35006KT 6SM VCTS BR SCT005 OVC012 21/21 A2968 RMK AO2 LTG DSNT NE T02060206
KSPI 220952Z 34003KT 6SM BR BKN005 21/21 A2968 RMK AO2 LTG DSNT NW SLP044 T02060206
KSPI 220941Z 00000KT 7SM SCT005 21/20 A2967 RMK AO2 LTG DSNT NE AND NW T02060200
KSPI 220911Z 00000KT 7SM BKN005 BKN009 BKN070 20/20 A2967 RMK AO2 LTG DSNT NE T02000200
KSPI 220852Z 00000KT 9SM OVC004 21/20 A2967 RMK AO2 LTG DSNT NE SLP043 T02060200 53001
KSPI 220840Z 00000KT 8SM OVC004 20/20 A2967 RMK AO2 LTG DSNT N AND NE T02000200
KSPI 220752Z 00000KT 10SM BKN008 BKN019 OVC029 20/20 A2967 RMK AO2 LTG DSNT NE SLP043 T02000200
KSPI 220652Z 00000KT 10SM BKN007 20/19 A2967 RMK AO2 LTG DSNT N SLP042 T02000194
KSPI 220650Z 00000KT 10SM BKN007 20/19 A2967 RMK AO2 LTG DSNT N
KSPI 220641Z 00000KT 10SM SCT008 19/19 A2967 RMK AO2 LTG DSNT N T01940194
KSPI 220552Z 32003KT 10SM CLR 19/19 A2969 RMK AO2 SLP047 60022 T01940194 10239 20194 402720194 58007
KSPI 220452Z 26003KT 10SM CLR 20/20 A2970 RMK AO2 SLP053 T02000200
KSPI 220352Z 00000KT 10SM CLR 21/20 A2971 RMK AO2 SLP055 T02060200
KSPI 220252Z 00000KT 10SM CLR 21/21 A2971 RMK AO2 RAE09 SLP055 P0001 60022 T02060206 51009
KSPI 220152Z 29005KT 10SM -RA FEW050 SCT080 OVC110 21/21 A2970 RMK AO2 TSE21 SLP054 P0011 T02110206
KSPI 220143Z 22004KT 7SM -RA FEW014 SCT050 OVC110 21/21 A2970 RMK AO2 LTG DSNT NW TSE21 P0011 T02110206
KSPI 220135Z 17007KT 2 1/2SM RA BR FEW014 BKN050 OVC100 21/21 A2970 RMK AO2 LTG DSNT NW TSE21 P0010 T02110206
KSPI 220127Z 18008KT 4SM RA BR FEW014 BKN050 OVC090 21/21 A2970 RMK AO2 LTG DSNT SE TSE21 P0005 T02110206
KSPI 220106Z 00000KT 3SM -TSRA BR FEW050 BKN075 OVC095 22/22 A2971 RMK AO2 LTG DSNT SE AND S AND NW P0004 T02220217
KSPI 220052Z 00000KT 1 1/2SM TSRA BR FEW033 BKN050 OVC090 22/22 A2970 RMK AO2 LTG DSNT SE RAB06 TSB50 SLP053 P0010 T02220217
KSPI 220039Z 26004KT 1 3/4SM R04/5500VP6000FT VCTS RA BR SCT033 BKN075 OVC090 23/22 A2970 RMK AO2 LTG DSNT SE AND S RAB06 P0004 T02280217
KSPI 212352Z 05006KT 10SM VCTS BKN085 24/21 A2968 RMK AO2 LTG DSNT SE AND S SLP046 60030 T02390206 10272 20206 56004
KSPI 212344Z 03007KT 10SM VCTS BKN085 24/21 A2967 RMK AO2 LTG DSNT SE AND S T02390206
KSPI 212252Z 35006KT 10SM BKN060 25/21 A2969 RMK AO2 LTG DSNT SE AND S SLP047 T02500211
KSPI 212152Z 32005KT 10SM FEW065 25/21 A2968 RMK AO2 LTG DSNT SE SLP046 T02500211
KSPI 212052Z 34005KT 10SM FEW047 FEW075 24/21 A2969 RMK AO2 LTG DSNT N-E RAB1958E33 TSE20 SLP050 P0025 60030 T02440211 58004
KSPI 212041Z 34005KT 10SM FEW049 SCT060 BKN075 23/21 A2969 RMK AO2 LTG DSNT N AND NE RAB1958E33 TSE20 P0025 T02280206
KSPI 212024Z VRB03KT 3SM VCTS -RA BR FEW037 BKN049 OVC075 21/21 A2970 RMK AO2 LTG DSNT N AND SW RAB1958 TSE20 P0024 T02110206
KSPI 212018Z 33005KT 1 1/2SM R04/5000VP6000FT +TSRA BR FEW037 BKN049 OVC065 21/21 A2970 RMK AO2 LTG DSNT N AND SW RAB1958 P0022 T02110206
KSPI 212011Z 33009G18KT 3/4SM R04/2400VP6000FT +TSRA BR FEW026 BKN038 OVC050 21/20 A2971 RMK AO2 LTG DSNT N AND SW RAB1958 P0015 T02060200
KSPI 212006Z 30009G18KT 270V350 1 3/4SM R04/2400VP6000FT TSRA BR FEW009 BKN036 OVC049 22/21 A2972 RMK AO2 LTG DSNT SW-N RAB1958 P0000 T02170206
KSPI 212001Z 24011G17KT 10SM -TSRA FEW013 BKN036 OVC049 22/20 A2972 RMK AO2 LTG DSNT SW-N RAB1958 P0000 T02170200
KSPI 211952Z VRB04KT 10SM TS FEW015 BKN026 OVC035 22/19 A2971 RMK AO2 LTG DSNT SW-N RAB16E37 TSB27 SLP056 P0005 T02220194
KSPI 211936Z VRB06KT 10SM -TSRA SCT015 BKN026 OVC038 25/23 A2970 RMK AO2 LTG DSNT SW AND NW RAB16 TSB27 P0005 T02500228
KSPI 211927Z 00000KT 2 1/2SM R04/4000VP6000FT -TSRA BR SCT015 SCT020 OVC025 24/22 A2970 RMK AO2 LTG DSNT W AND NW RAB16 TSB27 P0005 T02440222
KSPI 211907Z 12003KT 10SM VCTS BKN029 BKN090 BKN110 27/22 A2969 RMK AO2 LTG DSNT W AND NW T02670217
KSPI 211852Z 00000KT 10SM FEW027 SCT090 BKN110 27/22 A2970 RMK AO2 LTG DSNT NE AND E AND W SLP052 T02670217
KSPI 211752Z 28007KT 10SM FEW017 SCT025 BKN035 27/22 A2971 RMK AO2 LTG DSNT N-SE RAE00 TSE20 SLP054 P0000 60041 T02670222 10272 20222 56006
KSPI 211748Z 24005KT 10SM FEW017 SCT025 BKN033 26/23 A2971 RMK AO2 LTG DSNT N-SE RAE00 TSE20 P0000
KSPI 211724Z 24009G17KT 10SM VCTS BKN015 26/23 A2971 RMK AO2 LTG DSNT NE-SE RAE00 TSE20 P0000 T02610233
KSPI 211707Z 26008KT 10SM TS BKN013 OVC018 23/22 A2972 RMK AO2 LTG DSNT N AND SE RAE00 P0000 T02330222
KSPI 211657Z 03004KT 6SM -TSRA BR FEW009 BKN015 OVC021 23/21 A2972 RMK AO2 LTG DSNT N AND SE AND SW P0000 T02280211
KSPI 211655Z 00000KT 2SM R04/3500VP6000FT -TSRA BR FEW009 BKN013 OVC021 23/21 A2972 RMK AO2 LTG DSNT N AND SE AND SW P0000 T02280211
KSPI 211652Z 23003G14KT 3/4SM R04/1400VP6000FT TSRA BR FEW009 BKN013 BKN021 23/21 A2972 RMK AO2 LTG DSNT SW AND NW RAB19E29B38 TSB44 SLP059 P0041 T02280211
KSPI 211644Z 20010G25KT 170V250 3/4SM R04/1400VP6000FT +TSRA BR FEW007 FEW014 BKN023 24/22 A2972 RMK AO2 LTG DSNT SW AND NW RAB19E29B38 TSB44 P0008 T02390222
KSPI 211642Z 23014G25KT 1 1/4SM R04/1400VP6000FT +RA BR FEW012 BKN023 24/22 A2972 RMK AO2 LTG DSNT NW RAB19E29B38 P0001 T02440222
KSPI 211633Z 18005KT 10SM VCTS BKN023 BKN035 27/22 A2970 RMK AO2 RAB19E29 PRESFR P0000 T02670217
KSPI 211625Z VRB05KT 10SM -RA BKN023 27/23 A2971 RMK AO2 RAB19 P0000 T02670228
KSPI 211552Z 16005KT 10SM CLR 27/22 A2972 RMK AO2 LTG DSNT W SLP060 T02670222
KSPI 211505Z 19003KT 10SM SCT010 BKN110 24/22 A2974 RMK AO2 T02440222
KSPI 211500Z 19003KT 10SM BKN010 BKN110 24/22 A2974 RMK AO2 T02440222
KSPI 211452Z 17003KT 10SM BKN008 24/22 A2974 RMK AO2 SLP065 T02440217 58006
KSPI 211352Z 24005KT 10SM OVC008 23/22 A2976 RMK AO2 SLP072 T02280217
KSPI 211252Z 20004KT 10SM OVC009 23/22 A2975 RMK AO2 SLP069 T02280217
KSPI 211152Z 22004KT 10SM BKN012 OVC029 23/22 A2976 RMK AO2 SLP070 60000 70019 T02280217 10228 20217 50000